createdAt,value
2023-02-25T00:00:17.670Z,98446.00
2023-02-25T00:01:21.823Z,98455.31
2023-02-25T00:02:24.101Z,98456.94
2023-02-25T00:03:27.126Z,98457.50
2023-02-25T00:04:29.303Z,98456.13
2023-02-25T00:05:32.212Z,98454.19
2023-02-25T00:06:34.436Z,98455.03
2023-02-25T00:07:36.670Z,98454.78
2023-02-25T00:08:39.770Z,98460.81
2023-02-25T00:09:42.028Z,98454.78
2023-02-25T00:10:46.800Z,98452.03
2023-02-25T00:11:50.092Z,98451.22
2023-02-25T00:12:52.600Z,98450.09
2023-02-25T00:13:55.559Z,98448.72
2023-02-25T00:14:57.769Z,98456.91
2023-02-25T00:16:03.316Z,98457.13
2023-02-25T00:17:05.578Z,98454.69
2023-02-25T00:18:10.391Z,98459.31
2023-02-25T00:19:12.698Z,98460.72
2023-02-25T00:20:17.357Z,98454.69
2023-02-25T00:21:19.495Z,98443.75
2023-02-25T00:22:21.654Z,98450.28
2023-02-25T00:23:24.050Z,98447.03
2023-02-25T00:24:26.302Z,98450.81
2023-02-25T00:25:28.867Z,98447.53
2023-02-25T00:26:31.013Z,98445.63
2023-02-25T00:27:34.304Z,98452.75
2023-02-25T00:28:37.833Z,98456.28
2023-02-25T00:29:40.919Z,98452.44
2023-02-25T00:30:43.576Z,98444.78
2023-02-25T00:31:47.462Z,98448.63
2023-02-25T00:32:50.702Z,98446.44
2023-02-25T00:33:53.244Z,98452.44
2023-02-25T00:34:55.504Z,98444.75
2023-02-25T00:35:57.745Z,98447.47
2023-02-25T00:37:01.401Z,98445.56
2023-02-25T00:38:15.725Z,98455.41
2023-02-25T00:39:20.735Z,98448.03
2023-02-25T00:40:23.018Z,98445.31
2023-02-25T00:41:30.931Z,98434.97
2023-02-25T00:42:33.117Z,98442.31
2023-02-25T00:43:38.552Z,98444.78
2023-02-25T00:44:44.130Z,98444.56
2023-02-25T00:45:46.322Z,98443.72
2023-02-25T00:46:48.617Z,98439.34
2023-02-25T00:47:50.995Z,98440.44
2023-02-25T00:48:54.848Z,98436.06
2023-02-25T00:49:58.613Z,98444.25
2023-02-25T00:51:13.234Z,98435.22
2023-02-25T00:52:17.048Z,98440.66
2023-02-25T00:53:19.234Z,98441.50
2023-02-25T00:54:21.410Z,98439.34
2023-02-25T00:55:23.664Z,98437.44
2023-02-25T00:56:27.305Z,98443.97
2023-02-25T00:57:29.663Z,98442.06
2023-02-25T00:58:31.858Z,98447.28
2023-02-25T00:59:34.156Z,98443.44
2023-02-25T01:00:50.155Z,98439.91
2023-02-25T01:01:53.761Z,98433.06
2023-02-25T01:02:57.584Z,98433.88
2023-02-25T01:04:01.310Z,98426.78
2023-02-25T01:05:04.226Z,98432.19
2023-02-25T01:06:09.294Z,98434.94
2023-02-25T01:07:13.588Z,98432.75
2023-02-25T01:08:20.870Z,98431.41
2023-02-25T01:09:23.035Z,98431.41
2023-02-25T01:10:26.458Z,98433.88
2023-02-25T01:11:31.181Z,98433.06
2023-02-25T01:12:33.586Z,98426.78
2023-02-25T01:13:37.197Z,98428.94
2023-02-25T01:14:39.398Z,98429.53
2023-02-25T01:15:42.551Z,98420.81
2023-02-25T01:16:47.337Z,98421.88
2023-02-25T01:17:49.511Z,98423.81
2023-02-25T01:18:54.747Z,98422.16
2023-02-25T01:19:57.909Z,98418.84
2023-02-25T01:21:00.680Z,98419.94
2023-02-25T01:22:02.924Z,98413.16
2023-02-25T01:23:08.300Z,98416.69
2023-02-25T01:24:13.820Z,98412.88
2023-02-25T01:25:17.799Z,98413.16
2023-02-25T01:26:20.005Z,98405.47
2023-02-25T01:27:22.299Z,98401.66
2023-02-25T01:28:25.748Z,98406.31
2023-02-25T01:29:34.572Z,98407.94
2023-02-25T01:30:38.491Z,98414.78
2023-02-25T01:31:41.425Z,98413.16
2023-02-25T01:32:45.147Z,98406.59
2023-02-25T01:33:47.356Z,98412.06
2023-02-25T01:34:49.651Z,98413.16
2023-02-25T01:35:51.834Z,98417.50
2023-02-25T01:40:00.751Z,98418.34
2023-02-25T01:41:03.472Z,98419.41
2023-02-25T01:42:13.883Z,98423.22
2023-02-25T01:43:16.472Z,98417.22
2023-02-25T01:44:37.876Z,98420.44
2023-02-25T01:45:44.584Z,98398.63
2023-02-25T01:46:54.521Z,98423.13
2023-02-25T01:48:11.831Z,98408.63
2023-02-25T01:49:30.210Z,98409.19
2023-02-25T01:50:40.001Z,98410.81
2023-02-25T01:51:44.884Z,98410.81
2023-02-25T01:52:51.652Z,98413.31
2023-02-25T01:53:58.391Z,98409.50
2023-02-25T01:55:04.043Z,98411.41
2023-02-25T01:56:14.062Z,98410.06
2023-02-25T01:57:18.915Z,98413.34
2023-02-25T01:58:22.239Z,98420.97
2023-02-25T01:59:29.344Z,98413.59
2023-02-25T02:00:33.838Z,98413.09
2023-02-25T02:01:39.229Z,98413.66
2023-02-25T02:02:45.607Z,98410.66
2023-02-25T02:03:50.546Z,98407.13
2023-02-25T02:04:54.953Z,98405.53
2023-02-25T02:06:07.580Z,98400.06
2023-02-25T02:07:10.215Z,98403.31
2023-02-25T02:08:13.753Z,98406.31
2023-02-25T02:09:19.426Z,98399.50
2023-02-25T02:10:21.709Z,98403.63
2023-02-25T02:11:26.088Z,98405.78
2023-02-25T02:12:37.142Z,98396.78
2023-02-25T02:13:43.933Z,98406.34
2023-02-25T02:14:46.135Z,98400.06
2023-02-25T02:16:18.506Z,98392.44
2023-02-25T02:17:30.012Z,98406.09
2023-02-25T02:18:35.583Z,98395.19
2023-02-25T02:19:46.838Z,98398.72
2023-02-25T02:21:20.230Z,98394.09
2023-02-25T02:22:41.276Z,98401.44
2023-02-25T02:24:04.589Z,98398.47
2023-02-25T02:25:24.965Z,98387.00
2023-02-25T02:26:49.452Z,98398.41
2023-02-25T02:28:15.693Z,98389.72
2023-02-25T02:29:39.492Z,98385.91
2023-02-25T02:31:16.445Z,98379.31
2023-02-25T02:32:36.353Z,98380.97
2023-02-25T02:34:06.413Z,98385.34
2023-02-25T02:35:20.712Z,98383.16
2023-02-25T02:36:55.340Z,98382.88
2023-02-25T02:38:22.905Z,98386.41
2023-02-25T02:39:34.486Z,98379.88
2023-02-25T02:41:02.316Z,98371.97
2023-02-25T02:42:21.403Z,98374.69
2023-02-25T02:43:50.716Z,98376.84
2023-02-25T02:45:14.730Z,98377.16
2023-02-25T02:46:32.978Z,98375.25
2023-02-25T02:47:39.391Z,98375.25
2023-02-25T02:48:52.808Z,98371.69
2023-02-25T02:50:01.160Z,98376.34
2023-02-25T02:51:11.442Z,98375.50
2023-02-25T02:52:18.929Z,98379.06
2023-02-25T02:53:40.185Z,98378.81
2023-02-25T02:54:47.504Z,98373.34
2023-02-25T02:55:55.669Z,98367.06
2023-02-25T02:57:00.916Z,98375.25
2023-02-25T02:58:10.362Z,98377.97
2023-02-25T02:59:25.981Z,98375.25
2023-02-25T03:00:45.017Z,98383.69
2023-02-25T03:01:56.087Z,98377.16
2023-02-25T03:03:05.664Z,98380.47
2023-02-25T03:04:12.309Z,98370.63
2023-02-25T03:05:17.767Z,98374.16
2023-02-25T03:06:29.650Z,98367.59
2023-02-25T03:07:34.522Z,98371.09
2023-02-25T03:08:45.853Z,98369.47
2023-02-25T03:09:55.673Z,98367.53
2023-02-25T03:10:58.863Z,98372.69
2023-02-25T03:12:01.327Z,98375.41
2023-02-25T03:13:07.957Z,98378.97
2023-02-25T03:14:13.097Z,98380.59
2023-02-25T03:15:15.645Z,98372.13
2023-02-25T03:16:36.613Z,98369.69
2023-02-25T03:18:06.999Z,98378.94
2023-02-25T03:19:15.298Z,98380.28
2023-02-25T03:20:28.241Z,98379.75
2023-02-25T03:21:38.227Z,98381.09
2023-02-25T03:22:45.533Z,98379.44
2023-02-25T03:23:48.709Z,98376.97
2023-02-25T03:24:59.187Z,98377.25
2023-02-25T03:26:38.460Z,98381.31
2023-02-25T03:27:43.810Z,98398.47
2023-02-25T03:28:47.721Z,98378.56
2023-02-25T03:29:50.324Z,98385.94
2023-02-25T03:30:55.532Z,98391.94
2023-02-25T03:32:09.854Z,98390.88
2023-02-25T03:33:39.655Z,98369.81
2023-02-25T03:34:49.071Z,98395.69
2023-02-25T03:35:54.613Z,98392.22
2023-02-25T03:37:03.624Z,98394.13
2023-02-25T03:38:17.577Z,98396.00
2023-02-25T03:39:26.994Z,98397.09
2023-02-25T03:40:30.623Z,98391.41
2023-02-25T03:41:39.178Z,98398.75
2023-02-25T03:42:46.718Z,98405.03
2023-02-25T03:43:53.972Z,98396.31
2023-02-25T03:45:00.971Z,98389.81
2023-02-25T03:46:05.402Z,98409.69
2023-02-25T03:47:10.922Z,98408.03
2023-02-25T03:48:17.533Z,98400.97
2023-02-25T03:49:26.564Z,98407.22
2023-02-25T03:50:33.932Z,98410.78
2023-02-25T03:51:44.974Z,98408.03
2023-02-25T03:52:47.310Z,98406.16
2023-02-25T03:54:07.281Z,98408.63
2023-02-25T03:55:16.017Z,98416.22
2023-02-25T03:56:18.367Z,98416.50
2023-02-25T03:57:25.475Z,98412.44
2023-02-25T03:58:28.036Z,98416.22
2023-02-25T03:59:30.279Z,98425.56
2023-02-25T04:00:34.416Z,98421.69
2023-02-25T04:01:38.756Z,98420.63
2023-02-25T04:02:42.198Z,98421.69
2023-02-25T04:03:44.600Z,98435.31
2023-02-25T04:04:47.261Z,98425.81
2023-02-25T04:05:49.440Z,98429.38
2023-02-25T04:06:52.467Z,98436.47
2023-02-25T04:07:56.646Z,98430.44
2023-02-25T04:09:01.287Z,98433.19
2023-02-25T04:10:06.670Z,98429.91
2023-02-25T04:11:09.566Z,98428.03
2023-02-25T04:12:11.807Z,98431.56
2023-02-25T04:13:17.125Z,98433.53
2023-02-25T04:14:19.407Z,98445.00
2023-02-25T04:15:21.603Z,98440.13
2023-02-25T04:16:24.181Z,98448.31
2023-02-25T04:17:26.748Z,98448.03
2023-02-25T04:18:28.995Z,98458.97
2023-02-25T04:19:31.603Z,98447.47
2023-02-25T04:20:33.961Z,98457.25
2023-02-25T04:21:37.329Z,98461.38
2023-02-25T04:22:39.520Z,98465.44
2023-02-25T04:23:41.770Z,98464.09
2023-02-25T04:24:43.949Z,98467.91
2023-02-25T04:25:46.203Z,98472.03
2023-02-25T04:26:48.468Z,98471.22
2023-02-25T04:27:51.131Z,98471.47
2023-02-25T04:28:53.750Z,98481.31
2023-02-25T04:29:55.917Z,98467.91
2023-02-25T04:30:59.118Z,98472.53
2023-02-25T04:32:01.447Z,98476.56
2023-02-25T04:33:03.906Z,98474.91
2023-02-25T04:34:06.105Z,98472.16
2023-02-25T04:35:12.297Z,98471.94
2023-02-25T04:36:35.130Z,98472.75
2023-02-25T04:37:38.077Z,98476.00
2023-02-25T04:38:40.267Z,98480.88
2023-02-25T04:39:42.530Z,98477.88
2023-02-25T04:40:44.714Z,98480.63
2023-02-25T04:41:46.931Z,98478.97
2023-02-25T04:42:49.783Z,98478.16
2023-02-25T04:43:51.948Z,98484.94
2023-02-25T04:44:54.153Z,98477.84
2023-02-25T04:45:57.297Z,98481.41
2023-02-25T04:47:00.883Z,98482.22
2023-02-25T04:48:03.619Z,98478.91
2023-02-25T04:49:07.363Z,98485.47
2023-02-25T04:50:11.934Z,98483.53
2023-02-25T04:51:14.238Z,98487.09
2023-02-25T04:52:16.549Z,98481.88
2023-02-25T04:53:19.755Z,98487.28
2023-02-25T04:54:22.251Z,98489.47
2023-02-25T04:55:24.788Z,98490.75
2023-02-25T04:56:27.050Z,98489.47
2023-02-25T04:57:29.330Z,98490.19
2023-02-25T04:58:32.584Z,98491.03
2023-02-25T04:59:34.901Z,98493.50
2023-02-25T05:00:39.019Z,98485.19
2023-02-25T05:01:41.591Z,98483.28
2023-02-25T05:02:46.493Z,98485.19
2023-02-25T05:03:49.121Z,98488.97
2023-02-25T05:04:51.346Z,98493.63
2023-02-25T05:05:55.037Z,98487.31
2023-02-25T05:06:57.227Z,98489.50
2023-02-25T05:07:59.850Z,98493.84
2023-02-25T05:09:02.347Z,98490.56
2023-02-25T05:10:06.307Z,98493.56
2023-02-25T05:11:11.380Z,98497.09
2023-02-25T05:12:13.533Z,98492.16
2023-02-25T05:13:16.228Z,98496.28
2023-02-25T05:14:18.648Z,98500.09
2023-02-25T05:15:20.981Z,98488.34
2023-02-25T05:16:23.853Z,98502.22
2023-02-25T05:17:28.378Z,98503.28
2023-02-25T05:18:30.557Z,98506.88
2023-02-25T05:19:32.846Z,98505.72
2023-02-25T05:20:35.675Z,98506.78
2023-02-25T05:21:37.895Z,98508.94
2023-02-25T05:22:41.783Z,98512.50
2023-02-25T05:23:46.691Z,98506.47
2023-02-25T05:24:48.900Z,98510.53
2023-02-25T05:25:51.458Z,98507.78
2023-02-25T05:26:54.224Z,98508.06
2023-02-25T05:27:56.352Z,98518.16
2023-02-25T05:28:58.612Z,98508.06
2023-02-25T05:30:01.124Z,98519.47
2023-02-25T05:31:08.530Z,98524.06
2023-02-25T05:32:10.955Z,98502.28
2023-02-25T05:33:13.722Z,98520.22
2023-02-25T05:34:16.722Z,98521.03
2023-02-25T05:35:18.917Z,98512.03
2023-02-25T05:36:25.913Z,98514.75
2023-02-25T05:37:31.979Z,98522.88
2023-02-25T05:38:35.257Z,98517.66
2023-02-25T05:39:37.585Z,98520.31
2023-02-25T05:40:41.144Z,98519.25
2023-02-25T05:41:43.409Z,98526.03
2023-02-25T05:42:49.825Z,98518.91
2023-02-25T05:43:52.141Z,98527.09
2023-02-25T05:44:55.016Z,98527.91
2023-02-25T05:46:00.057Z,98521.66
2023-02-25T05:47:02.370Z,98527.09
2023-02-25T05:48:05.146Z,98534.69
2023-02-25T05:49:07.382Z,98527.09
2023-02-25T05:50:11.024Z,98520.00
2023-02-25T05:51:16.364Z,98527.03
2023-02-25T05:52:18.590Z,98532.72
2023-02-25T05:53:20.740Z,98528.94
2023-02-25T05:54:22.926Z,98526.75
2023-02-25T05:55:26.894Z,98529.75
2023-02-25T05:56:32.018Z,98535.19
2023-02-25T05:57:34.585Z,98538.97
2023-02-25T05:58:36.996Z,98536.59
2023-02-25T05:59:39.288Z,98542.84
2023-02-25T06:00:41.753Z,98550.47
2023-02-25T06:01:44.732Z,98521.81
2023-02-25T06:02:49.074Z,98547.91
2023-02-25T06:03:52.448Z,98549.53
2023-02-25T06:04:55.492Z,98552.53
2023-02-25T06:05:57.731Z,98557.16
2023-02-25T06:07:00.067Z,98557.41
2023-02-25T06:08:02.303Z,98549.50
2023-02-25T06:09:06.118Z,98562.00
2023-02-25T06:10:09.112Z,98554.69
2023-02-25T06:11:15.468Z,98566.06
2023-02-25T06:12:17.625Z,98564.75
2023-02-25T06:13:21.814Z,98555.09
2023-02-25T06:14:24.446Z,98568.47
2023-02-25T06:15:26.647Z,98559.81
2023-02-25T06:16:32.433Z,98574.50
2023-02-25T06:17:35.090Z,98560.31
2023-02-25T06:18:38.482Z,98572.53
2023-02-25T06:19:40.717Z,98580.69
2023-02-25T06:20:44.815Z,98583.41
2023-02-25T06:21:47.158Z,98586.38
2023-02-25T06:22:49.322Z,98581.75
2023-02-25T06:23:55.786Z,98590.41
2023-02-25T06:24:57.954Z,98581.16
2023-02-25T06:26:00.194Z,98589.94
2023-02-25T06:27:03.402Z,98588.28
2023-02-25T06:28:05.703Z,98596.69
2023-02-25T06:29:09.788Z,98581.16
2023-02-25T06:30:12.402Z,98586.06
2023-02-25T06:31:19.885Z,98587.69
2023-02-25T06:32:22.362Z,98587.38
2023-02-25T06:33:24.591Z,98594.22
2023-02-25T06:34:32.694Z,98604.63
2023-02-25T06:35:36.212Z,98589.84
2023-02-25T06:36:38.396Z,98598.81
2023-02-25T06:37:41.188Z,98605.69
2023-02-25T06:38:46.238Z,98597.75
2023-02-25T06:39:48.912Z,98608.91
2023-02-25T06:40:51.065Z,98598.00
2023-02-25T06:41:53.621Z,98599.31
2023-02-25T06:42:55.773Z,98608.06
2023-02-25T06:43:59.120Z,98608.31
2023-02-25T06:45:02.731Z,98614.34
2023-02-25T06:46:10.653Z,98605.59
2023-02-25T06:47:14.010Z,98617.88
2023-02-25T06:48:16.182Z,98611.63
2023-02-25T06:49:19.932Z,98620.06
2023-02-25T06:50:22.103Z,98623.34
2023-02-25T06:51:24.325Z,98626.91
2023-02-25T06:52:29.046Z,98622.28
2023-02-25T06:53:31.235Z,98626.91
2023-02-25T06:54:33.585Z,98625.50
2023-02-25T06:55:38.259Z,98628.53
2023-02-25T06:56:43.029Z,98632.09
2023-02-25T06:57:45.236Z,98629.63
2023-02-25T06:58:48.054Z,98629.63
2023-02-25T06:59:51.250Z,98625.81
2023-02-25T07:00:53.501Z,98635.06
2023-02-25T07:01:55.710Z,98639.19
2023-02-25T07:02:58.013Z,98643.34
2023-02-25T07:04:01.901Z,98647.94
2023-02-25T07:05:05.638Z,98643.91
2023-02-25T07:06:09.070Z,98644.16
2023-02-25T07:07:11.380Z,98646.63
2023-02-25T07:08:14.902Z,98644.22
2023-02-25T07:09:20.128Z,98652.16
2023-02-25T07:10:23.036Z,98648.13
2023-02-25T07:11:25.187Z,98650.03
2023-02-25T07:12:27.413Z,98653.31
2023-02-25T07:13:30.681Z,98654.41
2023-02-25T07:14:32.878Z,98648.38
2023-02-25T07:15:35.826Z,98653.56
2023-02-25T07:16:38.087Z,98659.59
2023-02-25T07:17:40.257Z,98660.16
2023-02-25T07:18:43.201Z,98657.44
2023-02-25T07:19:45.380Z,98660.66
2023-02-25T07:20:47.736Z,98662.88
2023-02-25T07:21:50.002Z,98662.63
2023-02-25T07:22:52.595Z,98661.31
2023-02-25T07:23:55.180Z,98669.28
2023-02-25T07:24:57.333Z,98671.50
2023-02-25T07:26:09.002Z,98672.00
2023-02-25T07:27:15.248Z,98666.78
2023-02-25T07:28:17.478Z,98664.03
2023-02-25T07:29:20.876Z,98659.19
2023-02-25T07:30:23.289Z,98672.56
2023-02-25T07:31:27.343Z,98669.84
2023-02-25T07:32:30.000Z,98668.75
2023-02-25T07:33:32.362Z,98665.53
2023-02-25T07:34:35.517Z,98668.25
2023-02-25T07:35:37.697Z,98669.91
2023-02-25T07:36:40.763Z,98665.88
2023-02-25T07:37:43.271Z,98663.75
2023-02-25T07:38:45.756Z,98668.34
2023-02-25T07:39:48.012Z,98674.72
2023-02-25T07:40:50.223Z,98670.59
2023-02-25T07:41:52.487Z,98670.34
2023-02-25T07:42:55.671Z,98675.53
2023-02-25T07:43:59.652Z,98677.19
2023-02-25T07:45:02.289Z,98676.69
2023-02-25T07:46:06.727Z,98681.66
2023-02-25T07:47:09.309Z,98681.88
2023-02-25T07:48:12.780Z,98681.88
2023-02-25T07:49:14.945Z,98676.22
2023-02-25T07:50:18.278Z,98672.38
2023-02-25T07:51:23.285Z,98687.69
2023-02-25T07:52:25.699Z,98670.00
2023-02-25T07:53:27.841Z,98680.56
2023-02-25T07:54:30.022Z,98683.53
2023-02-25T07:55:35.297Z,98683.06
2023-02-25T07:56:38.831Z,98686.03
2023-02-25T07:57:41.316Z,98682.47
2023-02-25T07:58:44.193Z,98684.13
2023-02-25T07:59:49.142Z,98693.38
2023-02-25T08:00:52.190Z,98698.03
2023-02-25T08:01:54.637Z,98696.34
2023-02-25T08:02:56.825Z,98698.03
2023-02-25T08:04:06.375Z,98687.69
2023-02-25T08:05:09.325Z,98693.72
2023-02-25T08:06:11.488Z,98697.00
2023-02-25T08:07:13.772Z,98698.31
2023-02-25T08:08:16.787Z,98700.84
2023-02-25T08:09:19.005Z,98699.16
2023-02-25T08:10:22.057Z,98707.59
2023-02-25T08:11:26.272Z,98704.63
2023-02-25T08:12:29.198Z,98703.78
2023-02-25T08:13:31.520Z,98699.97
2023-02-25T08:14:33.749Z,98704.03
2023-02-25T08:15:41.040Z,98701.91
2023-02-25T08:16:43.306Z,98705.69
2023-02-25T08:17:45.791Z,98700.25
2023-02-25T08:18:48.884Z,98706.28
2023-02-25T08:19:52.191Z,98709.00
2023-02-25T08:20:56.263Z,98706.50
2023-02-25T08:22:00.545Z,98711.13
2023-02-25T08:23:04.214Z,98707.91
2023-02-25T08:24:08.138Z,98713.34
2023-02-25T08:25:11.645Z,98709.81
2023-02-25T08:26:16.156Z,98716.94
2023-02-25T08:27:18.368Z,98714.22
2023-02-25T08:28:23.044Z,98715.00
2023-02-25T08:29:25.791Z,98714.22
2023-02-25T08:30:28.123Z,98720.47
2023-02-25T08:31:30.551Z,98727.56
2023-02-25T08:32:35.796Z,98721.31
2023-02-25T08:33:41.335Z,98730.31
2023-02-25T08:34:46.181Z,98708.25
2023-02-25T08:35:49.676Z,98716.59
2023-02-25T08:36:51.881Z,98721.78
2023-02-25T08:37:54.634Z,98720.47
2023-02-25T08:39:00.435Z,98726.78
2023-02-25T08:40:08.779Z,98718.00
2023-02-25T08:41:11.026Z,98724.50
2023-02-25T08:42:15.750Z,98727.75
2023-02-25T08:43:17.951Z,98729.97
2023-02-25T08:44:20.785Z,98725.38
2023-02-25T08:45:23.674Z,98726.19
2023-02-25T08:46:30.487Z,98725.38
2023-02-25T08:47:32.772Z,98719.66
2023-02-25T08:48:35.885Z,98723.78
2023-02-25T08:49:40.518Z,98725.19
2023-02-25T08:50:42.968Z,98724.09
2023-02-25T08:51:50.853Z,98723.63
2023-02-25T08:52:53.132Z,98726.91
2023-02-25T08:53:55.391Z,98723.13
2023-02-25T08:54:57.663Z,98731.03
2023-02-25T08:56:05.367Z,98729.50
2023-02-25T08:57:07.601Z,98730.31
2023-02-25T08:58:09.737Z,98726.25
2023-02-25T08:59:15.331Z,98729.56
2023-02-25T09:00:18.155Z,98740.78
2023-02-25T09:01:21.426Z,98737.81
2023-02-25T09:02:24.413Z,98732.97
2023-02-25T09:03:26.530Z,98736.50
2023-02-25T09:04:30.025Z,98739.03
2023-02-25T09:05:32.180Z,98733.31
2023-02-25T09:06:34.364Z,98737.69
2023-02-25T09:07:37.803Z,98741.50
2023-02-25T09:08:40.149Z,98740.41
2023-02-25T09:09:44.580Z,98737.19
2023-02-25T09:10:50.537Z,98736.13
2023-02-25T09:11:53.819Z,98742.38
2023-02-25T09:12:57.170Z,98748.91
2023-02-25T09:13:59.658Z,98735.06
2023-02-25T09:15:02.182Z,98753.56
2023-02-25T09:16:04.820Z,98747.03
2023-02-25T09:17:15.013Z,98751.41
2023-02-25T09:18:17.225Z,98762.81
2023-02-25T09:19:19.484Z,98748.09
2023-02-25T09:20:21.809Z,98763.38
2023-02-25T09:21:25.792Z,98763.66
2023-02-25T09:22:28.623Z,98762.25
2023-02-25T09:23:31.287Z,98769.91
2023-02-25T09:24:33.996Z,98762.31
2023-02-25T09:25:38.577Z,98773.22
2023-02-25T09:26:40.823Z,98772.38
2023-02-25T09:27:42.970Z,98771.91
2023-02-25T09:28:45.924Z,98767.28
2023-02-25T09:29:49.093Z,98783.38
2023-02-25T09:30:53.165Z,98779.84
2023-02-25T09:31:59.137Z,98783.38
2023-02-25T09:33:01.604Z,98788.50
2023-02-25T09:34:06.658Z,98790.06
2023-02-25T09:35:10.078Z,98786.78
2023-02-25T09:36:16.993Z,98792.00
2023-02-25T09:37:19.850Z,98790.91
2023-02-25T09:38:22.312Z,98792.00
2023-02-25T09:39:24.454Z,98792.81
2023-02-25T09:40:27.122Z,98791.47
2023-02-25T09:41:50.663Z,98798.00
2023-02-25T09:42:52.822Z,98796.69
2023-02-25T09:44:14.529Z,98799.19
2023-02-25T09:45:20.043Z,98801.31
2023-02-25T09:46:23.359Z,98800.25
2023-02-25T09:47:42.949Z,98803.53
2023-02-25T09:48:55.308Z,98804.66
2023-02-25T09:50:03.241Z,98810.09
2023-02-25T09:51:28.098Z,98813.91
2023-02-25T09:52:48.346Z,98802.97
2023-02-25T09:54:00.900Z,98813.81
2023-02-25T09:55:26.117Z,98817.09
2023-02-25T09:56:29.320Z,98816.28
2023-02-25T09:57:37.116Z,98822.81
2023-02-25T09:58:44.423Z,98819.25
2023-02-25T09:59:47.938Z,98826.59
2023-02-25T10:01:05.898Z,98820.59
2023-02-25T10:02:21.030Z,98822.25
2023-02-25T10:03:39.131Z,98828.75
2023-02-25T10:05:06.934Z,98830.09
2023-02-25T10:06:25.869Z,98828.66
2023-02-25T10:07:35.644Z,98833.63
2023-02-25T10:09:06.576Z,98823.78
2023-02-25T10:10:35.157Z,98837.06
2023-02-25T10:11:47.816Z,98838.72
2023-02-25T10:13:02.612Z,98841.94
2023-02-25T10:14:23.296Z,98844.41
2023-02-25T10:15:54.561Z,98848.00
2023-02-25T10:17:17.158Z,98848.47
2023-02-25T10:18:28.517Z,98849.56
2023-02-25T10:20:00.750Z,98852.03
2023-02-25T10:21:15.821Z,98848.97
2023-02-25T10:22:36.727Z,98856.31
2023-02-25T10:24:02.132Z,98854.31
2023-02-25T10:25:18.752Z,98854.91
2023-02-25T10:26:24.823Z,98861.09
2023-02-25T10:27:37.737Z,98863.56
2023-02-25T10:28:44.419Z,98863.00
2023-02-25T10:29:52.813Z,98867.84
2023-02-25T10:30:59.441Z,98871.19
2023-02-25T10:32:16.068Z,98867.59
2023-02-25T10:33:24.597Z,98878.41
2023-02-25T10:34:31.218Z,98878.41
2023-02-25T10:35:39.561Z,98876.28
2023-02-25T10:36:46.558Z,98878.41
2023-02-25T10:37:48.951Z,98871.09
2023-02-25T10:38:52.738Z,98878.41
2023-02-25T10:40:00.065Z,98883.06
2023-02-25T10:41:03.148Z,98885.78
2023-02-25T10:42:05.796Z,98881.16
2023-02-25T10:43:20.466Z,98882.00
2023-02-25T10:44:22.689Z,98893.13
2023-02-25T10:45:28.332Z,98890.38
2023-02-25T10:47:04.465Z,98888.50
2023-02-25T10:48:19.832Z,98888.50
2023-02-25T10:49:28.308Z,98888.84
2023-02-25T10:50:44.827Z,98894.53
2023-02-25T10:52:17.805Z,98885.28
2023-02-25T10:53:23.913Z,98887.66
2023-02-25T10:54:26.810Z,98895.03
2023-02-25T10:55:55.136Z,98896.94
2023-02-25T10:57:13.696Z,98902.69
2023-02-25T10:58:28.127Z,98905.44
2023-02-25T10:59:39.744Z,98905.94
2023-02-25T11:00:44.612Z,98900.47
2023-02-25T11:01:48.242Z,98896.59
2023-02-25T11:02:51.791Z,98904.16
2023-02-25T11:04:06.173Z,98901.69
2023-02-25T11:05:36.269Z,98911.28
2023-02-25T11:06:41.481Z,98903.34
2023-02-25T11:07:43.756Z,98901.34
2023-02-25T11:08:46.804Z,98908.44
2023-02-25T11:09:49.059Z,98909.06
2023-02-25T11:11:04.367Z,98901.44
2023-02-25T11:12:20.865Z,98914.59
2023-02-25T11:13:36.728Z,98913.75
2023-02-25T11:14:39.862Z,98911.28
2023-02-25T11:15:46.001Z,98912.94
2023-02-25T11:16:48.720Z,98910.47
2023-02-25T11:17:52.753Z,98915.41
2023-02-25T11:19:00.040Z,98920.88
2023-02-25T11:20:05.984Z,98914.91
2023-02-25T11:21:13.199Z,98914.09
2023-02-25T11:22:28.447Z,98916.16
2023-02-25T11:23:39.558Z,98913.53
2023-02-25T11:24:43.416Z,98911.88
2023-02-25T11:25:47.224Z,98925.75
2023-02-25T11:26:52.450Z,98920.63
2023-02-25T11:27:58.896Z,98920.38
2023-02-25T11:29:06.616Z,98916.59
2023-02-25T11:30:20.352Z,98917.91
2023-02-25T11:31:26.330Z,98920.38
2023-02-25T11:32:28.893Z,98916.59
2023-02-25T11:33:39.945Z,98920.38
2023-02-25T11:34:49.267Z,98919.56
2023-02-25T11:36:00.344Z,98915.16
2023-02-25T11:37:43.175Z,98925.81
2023-02-25T11:38:47.969Z,98926.69
2023-02-25T11:39:56.105Z,98923.69
2023-02-25T11:40:58.576Z,98922.53
2023-02-25T11:42:24.275Z,98922.53
2023-02-25T11:43:39.904Z,98923.03
2023-02-25T11:44:44.935Z,98922.53
2023-02-25T11:45:55.842Z,98931.78
2023-02-25T11:47:25.909Z,98930.47
2023-02-25T11:48:35.045Z,98939.56
2023-02-25T11:50:17.678Z,98930.31
2023-02-25T11:51:28.247Z,98926.69
2023-02-25T11:52:50.621Z,98937.56
2023-02-25T11:54:23.578Z,98930.56
2023-02-25T11:55:44.692Z,98938.75
2023-02-25T11:56:51.613Z,98932.22
2023-02-25T11:58:09.785Z,98928.44
2023-02-25T11:59:29.625Z,98933.63
2023-02-25T12:01:03.093Z,98933.28
2023-02-25T12:02:33.986Z,98933.53
2023-02-25T12:03:55.580Z,98938.41
2023-02-25T12:05:21.291Z,98937.09
2023-02-25T12:06:39.292Z,98933.03
2023-02-25T12:08:13.631Z,98937.19
2023-02-25T12:09:49.616Z,98946.44
2023-02-25T12:11:29.577Z,98944.31
2023-02-25T12:13:05.835Z,98943.81
2023-02-25T12:14:25.676Z,98947.63
2023-02-25T12:15:49.112Z,98949.84
2023-02-25T12:17:15.392Z,98949.84
2023-02-25T12:18:50.349Z,98952.59
2023-02-25T12:20:30.466Z,98962.66
2023-02-25T12:21:47.783Z,98947.03
2023-02-25T12:23:28.439Z,98958.53
2023-02-25T12:24:50.858Z,98964.56
2023-02-25T12:26:14.628Z,98961.25
2023-02-25T12:27:28.693Z,98963.38
2023-02-25T12:28:47.720Z,98967.28
2023-02-25T12:30:03.025Z,98966.94
2023-02-25T12:31:25.349Z,98972.97
2023-02-25T12:32:55.783Z,98976.06
2023-02-25T12:34:29.441Z,98971.41
2023-02-25T12:35:55.362Z,98971.41
2023-02-25T12:37:29.693Z,98980.91
2023-02-25T12:38:55.129Z,98974.41
2023-02-25T12:40:15.858Z,98975.81
2023-02-25T12:41:37.401Z,98983.75
2023-02-25T12:43:01.292Z,98985.31
2023-02-25T12:44:37.175Z,98987.69
2023-02-25T12:46:09.466Z,98982.47
2023-02-25T12:47:33.604Z,98987.22
2023-02-25T12:49:04.146Z,98991.00
2023-02-25T12:50:20.420Z,98986.00
2023-02-25T12:51:52.700Z,98991.47
2023-02-25T12:53:21.231Z,98992.31
2023-02-25T12:54:26.163Z,98987.09
2023-02-25T12:56:03.661Z,98994.19
2023-02-25T12:57:36.497Z,98992.78
2023-02-25T12:59:22.521Z,98996.09
2023-02-25T13:00:55.971Z,99001.91
2023-02-25T13:02:22.992Z,98997.78
2023-02-25T13:03:37.575Z,99003.69
2023-02-25T13:05:08.228Z,99003.47
2023-02-25T13:06:38.410Z,99007.00
2023-02-25T13:08:06.972Z,99002.63
2023-02-25T13:09:24.774Z,99000.97
2023-02-25T13:10:46.763Z,99007.50
2023-02-25T13:12:13.037Z,99016.25
2023-02-25T13:13:46.330Z,99017.31
2023-02-25T13:15:06.765Z,99008.31
2023-02-25T13:16:36.610Z,99019.47
2023-02-25T13:18:16.732Z,99009.13
2023-02-25T13:19:56.811Z,99014.59
2023-02-25T13:21:19.053Z,99009.13
2023-02-25T13:22:56.903Z,99010.81
2023-02-25T13:24:36.815Z,99009.13
2023-02-25T13:26:00.423Z,99009.97